• Join FlightAware (Why Join?)
  • Login
  • US Flag 
06:42AM EDT


 

Airport Tracker/Info


-or-


 

Live Flight TrackerFlight Track Log ✈ ELJ309 ✈ 26-Apr-2013 ✈ KYNG - KILG

Flight Track Log - Related Links

Times and Time Zones

All times are in EDT time to prevent confusion due to time zone crossing. See the ELJ309 flight status page for this flight to view local times or setup timezone preferences in your user account.

Time Position Orientation Groundspeed Altitude Reporting Facility
EDT Latitude Longitude Course Direction KTS MPH feet Rate Location/Type
11:51AM 41.2386 -80.6439 122° Southeast 195 224 3,000  Level Cleveland Center
11:52AM 41.2033 -80.5694 122° Southeast 246 283 6,800 3,480 Climbing Cleveland Center
11:53AM 41.1617 -80.4894 125° Southeast 267 307 10,000 3,000 Climbing Cleveland Center
11:54AM 41.1178 -80.3958 122° Southeast 300 345 12,900 3,180 Climbing Cleveland Center
11:55AM 41.0653 -80.2883 123° Southeast 328 377 16,400 2,700 Climbing Cleveland Center
11:56AM 41.0086 -80.1758 124° Southeast 352 405 18,400 2,220 Climbing Cleveland Center
11:57AM 40.9456 -80.0553 125° Southeast 377 434 20,900 2,160 Climbing Cleveland Center
11:58AM 40.8825 -79.9267 123° Southeast 399 459 22,800 1,800 Climbing Cleveland Center
11:59AM 40.8150 -79.7958 124° Southeast 423 487 24,500 1,080 Climbing Cleveland Center
12:00PM 40.7344 -79.6433 125° Southeast 443 510 25,000 240 Climbing Cleveland Center
12:01PM 40.6603 -79.4936 123° Southeast 464 534 25,000  Level Cleveland Center
12:02PM 40.5881 -79.3528 124° Southeast 469 540 25,000  Level Cleveland Center
12:03PM 40.5114 -79.2122 126° Southeast 469 540 25,000  Level Cleveland Center
12:04PM 40.4367 -79.0692 124° Southeast 469 540 25,000  Level Cleveland Center
12:05PM 40.3636 -78.9264 124° Southeast 474 545 25,000  Level Cleveland Center
12:06PM 40.3175 -78.7642 110° East 466 536 25,000  Level Cleveland Center
12:07PM 40.3144 -78.5900 91° East 459 528 25,000  Level Cleveland Center
12:08PM 40.3156 -78.4183 89° East 464 534 25,000  Level Cleveland Center
12:09PM 40.3119 -78.2386 91° East 470 541 25,000  Level Cleveland Center
12:11PM 40.3056 -77.8508 91° East 492 566 25,000  Level New York Center
12:12PM 40.2867 -77.6744 98° East 487 560 25,000  Level New York Center
12:13PM 40.2697 -77.5014 97° East 487 560 25,000 -540 Level New York Center
12:14PM 40.2544 -77.3258 96° East 487 560 24,000 -1,860 Descending New York Center
12:16PM 40.2158 -77.0014 99° East 461 531 19,500 -2,100 Descending New York Center
12:17PM 40.2028 -76.8533 97° East 426 490 17,800 -1,860 Descending New York Center
12:18PM 40.1872 -76.7053 98° East 414 476 15,800 -2,160 Descending New York Center
12:19PM 40.1706 -76.5408 98° East 414 476 13,500 -2,100 Descending New York Center
12:20PM 40.1564 -76.3983 97° East 403 464 11,700 -1,440 Descending New York Center
12:21PM 40.1417 -76.2694 98° East 390 449 10,700 -1,080 Descending New York Center
12:22PM 40.1297 -76.1653 98° East 340 391 9,600 -1,140 Descending New York Center
12:23PM 40.1164 -76.0503 99° East 298 343 8,500 -1,320 Descending New York Center
12:24PM 40.1044 -75.9436 98° East 293 337 7,100 -1,260 Descending New York Center
12:25PM 40.0892 -75.8608 104° East 281 323 6,000 -600 Descending New York Center
12:26PM 40.0261 -75.8264 157° South 231 266 6,000 -360 Level New York Center
12:27PM 39.9542 -75.7969 163° South 242 278 5,300 -540 Descending New York Center
12:28PM 39.8869 -75.7650 160° South 256 295 5,000 -1,140 Descending New York Center
12:29PM 39.8236 -75.7336 159° South 256 295 3,100 -1,020 Descending New York Center
12:30PM 39.7975 -75.6614 115° Southeast 223 257 3,000 -60 Descending New York Center
12:31PM 39.7753 -75.5897 112° Southeast 212 244 3,000 -780 Level New York Center
12:32PM 39.7333 -75.5500 144° Southeast 210 242 1,700 -900 Descending Philadelphia TRACON
12:33PM 39.6833 -75.5333 166° South 159 183 1,600 -120 Descending Philadelphia TRACON
12:34PM 39.6500 -75.5500 201° Southwest 162 186 1,500 -420 Descending Philadelphia TRACON
12:35PM 39.6333 -75.5833 237° Southwest 113 130 800 -720 Descending Philadelphia TRACON
12:42PM 39.6667 -75.6000 163° South  Level FlightAware Approximate
12:49PM 39.6787 -75.6066 163° South  Level Estimated
12:50PM 39.6787 -75.6066 163° South  Level Estimated